»·PEaware :: N2506 KSBA-KSMX

N2506 :: KSBA-KSMX

FLIGHT INFORMATION

Flight Status: Arrived
Operator: Privately registered:
United States
More flights under this callsign
Pilot: Daniel L. (32547)
Aircraft: CESSNA 172 SKYHAWK
(C172)
More flights by this aircraft type
Origin: KSBA Santa Barbara Mun
United States
Destination: KSMX Santa Maria Pub/Capt Hancock
United States
More flights between these airports :: More routes between these airports
Route: FLOUT5 RZS
File this flight plan on PilotEdge
Remarks:
Altitude:
(Current/Filed)
6,000ft
Speed:
(Current/Filed)
110kts
Departed: 13-Jan-21 04:44 PM
Arrived: 13-Jan-21 05:45 PM
Distance/Time
Traveled:
41nm/1:01
Distance/Time
To Go:
Arrived

Flight Plot

Page will automatically refresh every two minutes.


Map Options




Map Legend


Flown Route
Filed Route
Departure Airport
Arrival Airport
Navaid (VOR, NDB)
Fix

Horizontal Profiles

Position Reports

Time Latitude Longitude Heading Altitude Ground
Speed
13-Jan-21 16:24 34.421755 -119.835957 75 15ft 0kts
13-Jan-21 16:25 34.421755 -119.835957 75 15ft 0kts
13-Jan-21 16:27 34.421755 -119.835957 75 15ft 0kts
13-Jan-21 16:28 34.421755 -119.835957 75 15ft 0kts
13-Jan-21 16:29 34.421755 -119.835957 75 15ft 0kts
13-Jan-21 16:30 34.421755 -119.835957 75 15ft 0kts
13-Jan-21 16:31 34.421755 -119.835957 75 15ft 0kts
13-Jan-21 16:32 34.421755 -119.835957 75 15ft 0kts
13-Jan-21 16:33 34.421755 -119.835957 75 15ft 0kts
13-Jan-21 16:34 34.421755 -119.835957 75 15ft 0kts
13-Jan-21 16:35 34.421755 -119.835957 75 15ft 0kts
13-Jan-21 16:36 34.421755 -119.835957 75 15ft 0kts
13-Jan-21 16:37 34.421755 -119.835957 75 15ft 0kts
13-Jan-21 16:38 34.421755 -119.835957 75 15ft 0kts
13-Jan-21 16:39 34.421918 -119.836300 306 16ft 6kts
13-Jan-21 16:40 34.424739 -119.837733 344 19ft 15kts
13-Jan-21 16:41 34.426760 -119.835917 89 16ft 21kts
13-Jan-21 16:42 34.427115 -119.834698 358 16ft 0kts
13-Jan-21 16:43 34.427813 -119.839627 266 30ft 64kts
13-Jan-21 16:44 34.431646 -119.865865 356 521ft 96kts
13-Jan-21 16:45 34.442752 -119.840907 74 1232ft 86kts
13-Jan-21 16:46 34.421755 -119.835957 75 15ft 0kts
13-Jan-21 16:47 34.421755 -119.835957 75 15ft 0kts
13-Jan-21 16:48 34.421755 -119.835957 75 15ft 0kts
13-Jan-21 16:49 34.421755 -119.835957 75 15ft 0kts
13-Jan-21 16:50 34.421755 -119.835957 75 15ft 0kts
13-Jan-21 16:51 34.421755 -119.835957 75 15ft 0kts
13-Jan-21 16:52 34.421755 -119.835957 75 15ft 0kts
13-Jan-21 16:53 34.421755 -119.835957 75 15ft 0kts
13-Jan-21 16:54 34.421862 -119.835971 295 15ft 4kts
13-Jan-21 16:55 34.423131 -119.837315 355 18ft 8kts
13-Jan-21 16:56 34.426728 -119.837835 89 18ft 10kts
13-Jan-21 16:57 34.427160 -119.834879 349 16ft 0kts
13-Jan-21 16:58 34.427160 -119.834879 349 16ft 0kts
13-Jan-21 16:59 34.427537 -119.844607 258 162ft 67kts
13-Jan-21 17:00 34.411203 -119.854977 173 597ft 101kts
13-Jan-21 17:01 34.382219 -119.858722 201 1102ft 109kts
13-Jan-21 17:02 34.355065 -119.876869 209 1671ft 108kts
13-Jan-21 17:03 34.332554 -119.892048 210 2573ft 91kts
13-Jan-21 17:04 34.310034 -119.907404 211 3265ft 94kts
13-Jan-21 17:05 34.286984 -119.923140 212 3909ft 97kts
13-Jan-21 17:06 34.262888 -119.939559 212 4500ft 101kts
13-Jan-21 17:07 34.240476 -119.942725 66 5039ft 83kts
13-Jan-21 17:08 34.260784 -119.939988 2 5603ft 76kts
13-Jan-21 17:09 34.282061 -119.935675 25 5979ft 90kts
13-Jan-21 17:10 34.305801 -119.918423 29 5999ft 104kts
13-Jan-21 17:11 34.331138 -119.900156 29 6001ft 106kts
13-Jan-21 17:12 34.355257 -119.882721 29 6002ft 107kts
13-Jan-21 17:13 34.380934 -119.864151 29 6003ft 107kts
13-Jan-21 17:14 34.406633 -119.845567 29 6002ft 108kts
13-Jan-21 17:15 34.432523 -119.826824 29 6003ft 108kts
13-Jan-21 17:16 34.458585 -119.807951 29 6002ft 109kts
13-Jan-21 17:17 34.484594 -119.789127 29 5985ft 109kts
13-Jan-21 17:18 34.510528 -119.770369 27 5958ft 110kts
13-Jan-21 17:19 34.538889 -119.751834 27 5942ft 117kts
13-Jan-21 17:20 34.566640 -119.733969 26 5937ft 111kts
13-Jan-21 17:21 34.594903 -119.721195 328 5962ft 116kts
13-Jan-21 17:22 34.586489 -119.759123 241 5914ft 125kts
13-Jan-21 17:23 34.568533 -119.795856 242 5946ft 128kts
13-Jan-21 17:24 34.551912 -119.834394 256 5943ft 127kts
13-Jan-21 17:25 34.555475 -119.874187 303 5949ft 119kts
13-Jan-21 17:26 34.572132 -119.909205 305 5950ft 120kts
13-Jan-21 17:27 34.588542 -119.944159 304 5989ft 119kts
13-Jan-21 17:28 34.605006 -119.979609 304 5987ft 120kts
13-Jan-21 17:29 34.620490 -120.016263 300 5993ft 123kts
13-Jan-21 17:30 34.636019 -120.053453 303 5647ft 122kts
13-Jan-21 17:31 34.652234 -120.089956 302 5244ft 122kts
13-Jan-21 17:32 34.668539 -120.126487 302 4850ft 124kts
13-Jan-21 17:33 34.684923 -120.163130 302 4606ft 122kts
13-Jan-21 17:34 34.701293 -120.199861 302 4596ft 125kts
13-Jan-21 17:36 34.718030 -120.237288 302 4577ft 124kts
13-Jan-21 17:37 34.742099 -120.265955 317 4596ft 121kts
13-Jan-21 17:38 34.765855 -120.294674 320 4605ft 120kts
13-Jan-21 17:39 34.789755 -120.323196 320 4610ft 120kts
13-Jan-21 17:40 34.814401 -120.352384 319 4299ft 134kts
13-Jan-21 17:41 34.839919 -120.382844 318 3195ft 113kts
13-Jan-21 17:42 34.858712 -120.405161 318 2134ft 83kts
13-Jan-21 17:43 34.875014 -120.424685 321 998ft 80kts
13-Jan-21 17:44 34.890678 -120.443490 321 343ft 77kts
13-Jan-21 17:45 34.899083 -120.453197 314 243ft 37kts
13-Jan-21 17:46 34.900891 -120.453129 98 240ft 14kts
13-Jan-21 17:47 34.900670 -120.450630 344 243ft 0kts

Navigation Log

Ident Type
Flight plan parsing failed, navigation log unavailable